sensor_id;sensor_type;location;lat;lon;timestamp;pressure;altitude;pressure_sealevel;temperature;humidity
17072;BME280;7731;50.720;6.912;2023-07-22T00:01:08;99949.16;;;13.83;100.00
17072;BME280;7731;50.720;6.912;2023-07-22T00:03:39;99939.44;;;13.73;100.00
17072;BME280;7731;50.720;6.912;2023-07-22T00:06:14;99947.88;;;13.63;100.00
17072;BME280;7731;50.720;6.912;2023-07-22T00:08:44;99948.94;;;13.18;100.00
17072;BME280;7731;50.720;6.912;2023-07-22T00:11:21;99942.09;;;13.04;100.00
17072;BME280;7731;50.720;6.912;2023-07-22T00:13:51;99945.66;;;13.02;100.00
17072;BME280;7731;50.720;6.912;2023-07-22T00:16:22;99945.09;;;12.84;100.00
17072;BME280;7731;50.720;6.912;2023-07-22T00:18:53;99943.31;;;12.84;100.00
17072;BME280;7731;50.720;6.912;2023-07-22T00:21:26;99937.31;;;12.98;100.00
17072;BME280;7731;50.720;6.912;2023-07-22T00:23:56;99950.50;;;13.21;100.00
17072;BME280;7731;50.720;6.912;2023-07-22T00:26:26;99944.69;;;13.32;100.00
17072;BME280;7731;50.720;6.912;2023-07-22T00:28:57;99944.09;;;13.14;100.00
17072;BME280;7731;50.720;6.912;2023-07-22T00:31:30;99951.06;;;12.84;100.00
17072;BME280;7731;50.720;6.912;2023-07-22T00:34:00;99939.44;;;13.19;100.00
17072;BME280;7731;50.720;6.912;2023-07-22T00:36:33;99936.03;;;12.91;100.00
17072;BME280;7731;50.720;6.912;2023-07-22T00:39:05;99942.41;;;12.85;100.00
17072;BME280;7731;50.720;6.912;2023-07-22T00:41:35;99947.28;;;12.76;100.00
17072;BME280;7731;50.720;6.912;2023-07-22T00:44:08;99946.09;;;12.81;100.00
17072;BME280;7731;50.720;6.912;2023-07-22T00:46:39;99947.28;;;12.76;100.00
17072;BME280;7731;50.720;6.912;2023-07-22T00:49:10;99944.34;;;12.82;100.00
17072;BME280;7731;50.720;6.912;2023-07-22T00:51:50;99945.88;;;13.26;100.00
17072;BME280;7731;50.720;6.912;2023-07-22T00:54:20;99949.19;;;13.01;100.00
17072;BME280;7731;50.720;6.912;2023-07-22T00:56:52;99949.78;;;12.77;100.00
17072;BME280;7731;50.720;6.912;2023-07-22T00:59:24;99945.09;;;12.69;100.00
17072;BME280;7731;50.720;6.912;2023-07-22T01:01:55;99947.47;;;12.87;100.00
17072;BME280;7731;50.720;6.912;2023-07-22T01:04:25;99942.72;;;12.66;100.00
17072;BME280;7731;50.720;6.912;2023-07-22T01:07:03;99951.38;;;12.51;100.00
17072;BME280;7731;50.720;6.912;2023-07-22T01:09:42;99947.84;;;12.81;100.00
17072;BME280;7731;50.720;6.912;2023-07-22T01:12:12;99944.84;;;13.01;100.00
17072;BME280;7731;50.720;6.912;2023-07-22T01:14:48;99944.91;;;12.87;100.00
17072;BME280;7731;50.720;6.912;2023-07-22T01:17:19;99940.13;;;12.81;100.00
17072;BME280;7731;50.720;6.912;2023-07-22T01:19:50;99931.25;;;12.85;100.00
17072;BME280;7731;50.720;6.912;2023-07-22T01:22:23;99945.00;;;12.42;100.00
17072;BME280;7731;50.720;6.912;2023-07-22T01:24:57;99944.91;;;12.73;100.00
17072;BME280;7731;50.720;6.912;2023-07-22T01:27:30;99933.69;;;12.74;100.00
17072;BME280;7731;50.720;6.912;2023-07-22T01:30:01;99939.78;;;12.29;100.00
17072;BME280;7731;50.720;6.912;2023-07-22T01:32:34;99937.38;;;12.41;100.00
17072;BME280;7731;50.720;6.912;2023-07-22T01:35:08;99936.06;;;12.77;100.00
17072;BME280;7731;50.720;6.912;2023-07-22T01:37:38;99932.31;;;12.54;100.00
17072;BME280;7731;50.720;6.912;2023-07-22T01:40:16;99936.28;;;12.45;100.00
17072;BME280;7731;50.720;6.912;2023-07-22T01:42:49;99939.84;;;12.42;100.00
17072;BME280;7731;50.720;6.912;2023-07-22T01:45:19;99918.97;;;12.61;100.00
17072;BME280;7731;50.720;6.912;2023-07-22T01:47:49;99925.16;;;12.44;100.00
17072;BME280;7731;50.720;6.912;2023-07-22T01:50:20;99926.00;;;12.30;100.00
17072;BME280;7731;50.720;6.912;2023-07-22T01:52:50;99917.69;;;12.25;100.00
17072;BME280;7731;50.720;6.912;2023-07-22T01:55:23;99918.97;;;12.61;100.00
17072;BME280;7731;50.720;6.912;2023-07-22T01:57:54;99923.19;;;12.77;100.00
17072;BME280;7731;50.720;6.912;2023-07-22T02:00:30;99919.88;;;12.75;100.00
17072;BME280;7731;50.720;6.912;2023-07-22T02:03:03;99920.44;;;12.65;100.00
17072;BME280;7731;50.720;6.912;2023-07-22T02:05:37;99918.06;;;12.48;100.00
17072;BME280;7731;50.720;6.912;2023-07-22T02:08:10;99911.16;;;12.34;100.00
17072;BME280;7731;50.720;6.912;2023-07-22T02:10:43;99920.81;;;12.16;100.00
17072;BME280;7731;50.720;6.912;2023-07-22T02:13:16;99924.88;;;12.20;100.00
17072;BME280;7731;50.720;6.912;2023-07-22T02:15:46;99920.94;;;12.29;100.00
17072;BME280;7731;50.720;6.912;2023-07-22T02:18:17;99921.19;;;12.39;100.00
17072;BME280;7731;50.720;6.912;2023-07-22T02:20:47;99910.88;;;12.53;100.00
17072;BME280;7731;50.720;6.912;2023-07-22T02:23:25;99912.88;;;12.62;100.00
17072;BME280;7731;50.720;6.912;2023-07-22T02:26:01;99913.34;;;12.69;100.00
17072;BME280;7731;50.720;6.912;2023-07-22T02:28:34;99918.03;;;12.62;100.00
17072;BME280;7731;50.720;6.912;2023-07-22T02:31:05;99923.03;;;12.22;100.00
17072;BME280;7731;50.720;6.912;2023-07-22T02:33:35;99917.16;;;12.06;100.00
17072;BME280;7731;50.720;6.912;2023-07-22T02:36:06;99917.34;;;11.87;100.00
17072;BME280;7731;50.720;6.912;2023-07-22T02:38:36;99917.53;;;12.00;100.00
17072;BME280;7731;50.720;6.912;2023-07-22T02:41:09;99906.09;;;12.32;100.00
17072;BME280;7731;50.720;6.912;2023-07-22T02:43:39;99912.72;;;12.22;100.00
17072;BME280;7731;50.720;6.912;2023-07-22T02:46:17;99909.16;;;12.10;100.00
17072;BME280;7731;50.720;6.912;2023-07-22T02:48:50;99923.94;;;12.07;100.00
17072;BME280;7731;50.720;6.912;2023-07-22T02:51:22;99913.56;;;12.08;100.00
17072;BME280;7731;50.720;6.912;2023-07-22T02:53:52;99915.50;;;12.33;100.00
17072;BME280;7731;50.720;6.912;2023-07-22T02:56:27;99911.81;;;12.38;100.00
17072;BME280;7731;50.720;6.912;2023-07-22T02:58:58;99929.09;;;12.07;100.00
17072;BME280;7731;50.720;6.912;2023-07-22T03:01:28;99920.19;;;11.82;100.00
17072;BME280;7731;50.720;6.912;2023-07-22T03:04:02;99927.38;;;11.77;100.00
17072;BME280;7731;50.720;6.912;2023-07-22T03:06:33;99921.50;;;11.75;100.00
17072;BME280;7731;50.720;6.912;2023-07-22T03:09:11;99925.16;;;11.85;100.00
17072;BME280;7731;50.720;6.912;2023-07-22T03:11:46;99925.53;;;11.79;100.00
17072;BME280;7731;50.720;6.912;2023-07-22T03:14:17;99918.59;;;11.65;100.00
17072;BME280;7731;50.720;6.912;2023-07-22T03:16:55;99917.06;;;11.77;100.00
17072;BME280;7731;50.720;6.912;2023-07-22T03:19:28;99917.16;;;11.61;100.00
17072;BME280;7731;50.720;6.912;2023-07-22T03:21:58;99925.25;;;11.53;100.00
17072;BME280;7731;50.720;6.912;2023-07-22T03:24:31;99929.69;;;11.51;100.00
17072;BME280;7731;50.720;6.912;2023-07-22T03:27:07;99919.00;;;11.43;100.00
17072;BME280;7731;50.720;6.912;2023-07-22T03:29:41;99919.09;;;11.25;100.00
17072;BME280;7731;50.720;6.912;2023-07-22T03:32:12;99918.38;;;11.23;100.00
17072;BME280;7731;50.720;6.912;2023-07-22T03:34:42;99916.72;;;11.06;100.00
17072;BME280;7731;50.720;6.912;2023-07-22T03:37:12;99917.16;;;10.99;100.00
17072;BME280;7731;50.720;6.912;2023-07-22T03:39:42;99917.56;;;11.07;100.00
17072;BME280;7731;50.720;6.912;2023-07-22T03:42:15;99909.44;;;10.99;100.00
17072;BME280;7731;50.720;6.912;2023-07-22T03:44:46;99915.75;;;10.93;100.00
17072;BME280;7731;50.720;6.912;2023-07-22T03:47:16;99919.66;;;10.84;100.00
17072;BME280;7731;50.720;6.912;2023-07-22T03:49:46;99918.75;;;11.01;100.00
17072;BME280;7731;50.720;6.912;2023-07-22T03:52:17;99916.75;;;10.90;100.00
17072;BME280;7731;50.720;6.912;2023-07-22T03:54:47;99920.53;;;10.99;100.00
17072;BME280;7731;50.720;6.912;2023-07-22T03:57:25;99921.31;;;10.85;100.00
17072;BME280;7731;50.720;6.912;2023-07-22T03:59:56;99917.75;;;10.72;100.00
17072;BME280;7731;50.720;6.912;2023-07-22T04:02:27;99914.56;;;10.67;100.00
17072;BME280;7731;50.720;6.912;2023-07-22T04:04:58;99916.91;;;10.71;100.00
17072;BME280;7731;50.720;6.912;2023-07-22T04:07:28;99915.50;;;10.66;100.00
17072;BME280;7731;50.720;6.912;2023-07-22T04:10:01;99906.47;;;10.75;100.00
17072;BME280;7731;50.720;6.912;2023-07-22T04:12:34;99906.66;;;10.87;100.00
17072;BME280;7731;50.720;6.912;2023-07-22T04:15:11;99908.44;;;10.85;100.00
17072;BME280;7731;50.720;6.912;2023-07-22T04:17:42;99912.59;;;11.04;100.00
17072;BME280;7731;50.720;6.912;2023-07-22T04:20:17;99913.84;;;10.97;100.00
17072;BME280;7731;50.720;6.912;2023-07-22T04:22:47;99911.44;;;11.10;100.00
17072;BME280;7731;50.720;6.912;2023-07-22T04:25:18;99908.78;;;11.11;100.00
17072;BME280;7731;50.720;6.912;2023-07-22T04:27:53;99907.69;;;11.15;100.00
17072;BME280;7731;50.720;6.912;2023-07-22T04:30:26;99917.16;;;11.45;100.00
17072;BME280;7731;50.720;6.912;2023-07-22T04:33:10;99918.84;;;11.30;100.00
17072;BME280;7731;50.720;6.912;2023-07-22T04:35:42;99914.72;;;11.28;100.00
17072;BME280;7731;50.720;6.912;2023-07-22T04:38:13;99912.88;;;11.30;100.00
17072;BME280;7731;50.720;6.912;2023-07-22T04:40:43;99919.34;;;11.37;100.00
17072;BME280;7731;50.720;6.912;2023-07-22T04:43:16;99913.69;;;11.30;100.00
17072;BME280;7731;50.720;6.912;2023-07-22T04:45:49;99921.31;;;11.48;100.00
17072;BME280;7731;50.720;6.912;2023-07-22T04:48:22;99920.63;;;11.60;100.00
17072;BME280;7731;50.720;6.912;2023-07-22T04:50:55;99919.50;;;11.94;100.00
17072;BME280;7731;50.720;6.912;2023-07-22T04:53:33;99916.03;;;12.10;100.00
17072;BME280;7731;50.720;6.912;2023-07-22T04:56:03;99925.78;;;12.05;100.00
17072;BME280;7731;50.720;6.912;2023-07-22T04:58:36;99920.25;;;12.25;100.00
17072;BME280;7731;50.720;6.912;2023-07-22T05:01:09;99918.97;;;12.04;100.00
17072;BME280;7731;50.720;6.912;2023-07-22T05:03:39;99928.53;;;12.16;100.00
17072;BME280;7731;50.720;6.912;2023-07-22T05:06:12;99930.38;;;12.28;100.00
17072;BME280;7731;50.720;6.912;2023-07-22T05:08:43;99924.69;;;12.23;100.00
17072;BME280;7731;50.720;6.912;2023-07-22T05:11:13;99929.28;;;12.61;100.00
17072;BME280;7731;50.720;6.912;2023-07-22T05:13:48;99926.59;;;13.04;100.00
17072;BME280;7731;50.720;6.912;2023-07-22T05:16:19;99920.25;;;13.10;100.00
17072;BME280;7731;50.720;6.912;2023-07-22T05:18:49;99923.19;;;13.31;100.00
17072;BME280;7731;50.720;6.912;2023-07-22T05:21:19;99924.94;;;13.58;100.00
17072;BME280;7731;50.720;6.912;2023-07-22T05:23:50;99920.38;;;13.49;100.00
17072;BME280;7731;50.720;6.912;2023-07-22T05:26:20;99917.03;;;13.87;100.00
17072;BME280;7731;50.720;6.912;2023-07-22T05:28:54;99919.00;;;13.96;100.00
17072;BME280;7731;50.720;6.912;2023-07-22T05:31:26;99917.94;;;14.50;100.00
17072;BME280;7731;50.720;6.912;2023-07-22T05:33:57;99917.72;;;14.40;100.00
17072;BME280;7731;50.720;6.912;2023-07-22T05:36:33;99918.59;;;15.50;96.42
17072;BME280;7731;50.720;6.912;2023-07-22T05:39:06;99918.03;;;16.39;91.00
17072;BME280;7731;50.720;6.912;2023-07-22T05:41:36;99906.47;;;17.42;77.89
17072;BME280;7731;50.720;6.912;2023-07-22T05:44:13;99902.91;;;18.97;65.72
17072;BME280;7731;50.720;6.912;2023-07-22T05:46:44;99906.72;;;19.61;61.30
17072;BME280;7731;50.720;6.912;2023-07-22T05:49:17;99908.94;;;19.47;64.92
17072;BME280;7731;50.720;6.912;2023-07-22T05:51:50;99907.03;;;20.89;55.09
17072;BME280;7731;50.720;6.912;2023-07-22T05:54:21;99908.03;;;19.95;60.95
17072;BME280;7731;50.720;6.912;2023-07-22T05:56:54;99900.84;;;21.08;53.45
17072;BME280;7731;50.720;6.912;2023-07-22T05:59:32;99902.44;;;21.45;50.27
17072;BME280;7731;50.720;6.912;2023-07-22T06:02:08;99894.91;;;21.42;49.07
17072;BME280;7731;50.720;6.912;2023-07-22T06:04:38;99897.72;;;21.22;50.78
17072;BME280;7731;50.720;6.912;2023-07-22T06:07:09;99898.66;;;22.18;49.84
17072;BME280;7731;50.720;6.912;2023-07-22T06:09:39;99908.16;;;20.31;53.68
17072;BME280;7731;50.720;6.912;2023-07-22T06:12:09;99922.88;;;19.65;58.94
17072;BME280;7731;50.720;6.912;2023-07-22T06:14:45;99917.69;;;19.85;59.06
17072;BME280;7731;50.720;6.912;2023-07-22T06:17:18;99916.75;;;20.97;54.18
17072;BME280;7731;50.720;6.912;2023-07-22T06:19:49;99921.06;;;21.86;50.96
17072;BME280;7731;50.720;6.912;2023-07-22T06:22:19;99911.63;;;22.71;48.22
17072;BME280;7731;50.720;6.912;2023-07-22T06:24:52;99916.44;;;21.80;49.31
17072;BME280;7731;50.720;6.912;2023-07-22T06:27:25;99905.88;;;21.64;50.22
17072;BME280;7731;50.720;6.912;2023-07-22T06:30:07;99912.94;;;21.09;54.25
17072;BME280;7731;50.720;6.912;2023-07-22T06:32:38;99897.34;;;22.57;48.97
17072;BME280;7731;50.720;6.912;2023-07-22T06:35:09;99906.13;;;21.34;53.02
17072;BME280;7731;50.720;6.912;2023-07-22T06:37:39;99902.75;;;21.60;52.25
17072;BME280;7731;50.720;6.912;2023-07-22T06:40:18;99897.00;;;22.52;50.35
17072;BME280;7731;50.720;6.912;2023-07-22T06:42:48;99892.47;;;22.27;49.35
17072;BME280;7731;50.720;6.912;2023-07-22T06:45:21;99892.00;;;22.91;47.95
17072;BME280;7731;50.720;6.912;2023-07-22T06:47:52;99896.22;;;23.91;43.70
17072;BME280;7731;50.720;6.912;2023-07-22T06:50:25;99892.72;;;25.24;40.66
17072;BME280;7731;50.720;6.912;2023-07-22T06:52:55;99897.56;;;24.35;42.20
17072;BME280;7731;50.720;6.912;2023-07-22T06:55:25;99892.78;;;24.70;41.83
17072;BME280;7731;50.720;6.912;2023-07-22T06:57:56;99902.13;;;24.72;41.23
17072;BME280;7731;50.720;6.912;2023-07-22T07:00:29;99894.91;;;26.18;38.19
17072;BME280;7731;50.720;6.912;2023-07-22T07:03:02;99895.47;;;24.85;40.18
17072;BME280;7731;50.720;6.912;2023-07-22T07:05:35;99901.44;;;26.23;37.32
17072;BME280;7731;50.720;6.912;2023-07-22T07:08:08;99899.59;;;26.38;36.95
17072;BME280;7731;50.720;6.912;2023-07-22T07:10:40;99893.72;;;26.06;36.67
17072;BME280;7731;50.720;6.912;2023-07-22T07:13:10;99898.91;;;26.87;36.27
17072;BME280;7731;50.720;6.912;2023-07-22T07:15:47;99898.47;;;29.00;32.52
17072;BME280;7731;50.720;6.912;2023-07-22T07:18:38;99900.38;;;26.53;35.73
17072;BME280;7731;50.720;6.912;2023-07-22T07:21:09;99893.34;;;29.06;31.75
17072;BME280;7731;50.720;6.912;2023-07-22T07:23:41;99896.19;;;27.74;34.01
17072;BME280;7731;50.720;6.912;2023-07-22T07:26:12;99896.75;;;26.91;35.52
17072;BME280;7731;50.720;6.912;2023-07-22T07:28:42;99894.16;;;26.25;36.09
17072;BME280;7731;50.720;6.912;2023-07-22T07:31:19;99897.19;;;26.58;34.49
17072;BME280;7731;50.720;6.912;2023-07-22T07:33:52;99895.16;;;26.38;34.97
17072;BME280;7731;50.720;6.912;2023-07-22T07:36:24;99890.81;;;26.89;33.35
17072;BME280;7731;50.720;6.912;2023-07-22T07:38:54;99892.97;;;27.00;33.56
17072;BME280;7731;50.720;6.912;2023-07-22T07:41:25;99889.56;;;27.91;32.84
17072;BME280;7731;50.720;6.912;2023-07-22T07:43:55;99885.53;;;28.44;31.12
17072;BME280;7731;50.720;6.912;2023-07-22T07:46:28;99886.91;;;27.56;32.05
17072;BME280;7731;50.720;6.912;2023-07-22T07:49:01;99880.00;;;26.77;31.00
17072;BME280;7731;50.720;6.912;2023-07-22T07:51:32;99885.41;;;28.79;27.88
17072;BME280;7731;50.720;6.912;2023-07-22T07:54:02;99883.31;;;28.47;28.38
17072;BME280;7731;50.720;6.912;2023-07-22T07:56:34;99893.47;;;26.89;30.28
17072;BME280;7731;50.720;6.912;2023-07-22T07:59:05;99887.47;;;27.23;30.88
17072;BME280;7731;50.720;6.912;2023-07-22T08:01:39;99892.38;;;27.55;29.21
17072;BME280;7731;50.720;6.912;2023-07-22T08:04:11;99890.88;;;27.39;29.71
17072;BME280;7731;50.720;6.912;2023-07-22T08:06:44;99882.22;;;26.07;31.03
17072;BME280;7731;50.720;6.912;2023-07-22T08:09:23;99877.53;;;26.76;31.29
17072;BME280;7731;50.720;6.912;2023-07-22T08:11:54;99886.78;;;28.00;29.19
17072;BME280;7731;50.720;6.912;2023-07-22T08:14:24;99870.59;;;28.91;26.46
17072;BME280;7731;50.720;6.912;2023-07-22T08:17:00;99876.09;;;29.23;26.20
17072;BME280;7731;50.720;6.912;2023-07-22T08:19:31;99889.41;;;28.48;26.02
17072;BME280;7731;50.720;6.912;2023-07-22T08:22:01;99880.09;;;29.72;25.33
17072;BME280;7731;50.720;6.912;2023-07-22T08:24:32;99889.09;;;28.91;24.89
17072;BME280;7731;50.720;6.912;2023-07-22T08:27:05;99896.53;;;25.90;28.44
17072;BME280;7731;50.720;6.912;2023-07-22T08:29:39;99884.63;;;25.34;30.22
17072;BME280;7731;50.720;6.912;2023-07-22T08:32:15;99884.13;;;25.30;30.48
17072;BME280;7731;50.720;6.912;2023-07-22T08:34:46;99886.47;;;25.63;30.25
17072;BME280;7731;50.720;6.912;2023-07-22T08:37:16;99890.03;;;24.86;31.28
17072;BME280;7731;50.720;6.912;2023-07-22T08:39:47;99887.59;;;24.85;31.86
17072;BME280;7731;50.720;6.912;2023-07-22T08:42:19;99884.72;;;25.18;31.99
17072;BME280;7731;50.720;6.912;2023-07-22T08:44:57;99879.22;;;25.04;31.78
17072;BME280;7731;50.720;6.912;2023-07-22T08:47:33;99892.81;;;24.22;32.44
17072;BME280;7731;50.720;6.912;2023-07-22T08:50:08;99889.03;;;23.77;33.54
17072;BME280;7731;50.720;6.912;2023-07-22T08:52:39;99884.06;;;23.98;33.07
17072;BME280;7731;50.720;6.912;2023-07-22T08:55:10;99881.06;;;25.19;30.93
17072;BME280;7731;50.720;6.912;2023-07-22T08:57:45;99876.50;;;24.74;31.29
17072;BME280;7731;50.720;6.912;2023-07-22T09:00:17;99876.13;;;25.24;29.98
17072;BME280;7731;50.720;6.912;2023-07-22T09:02:53;99883.28;;;24.29;30.28
17072;BME280;7731;50.720;6.912;2023-07-22T09:05:25;99877.91;;;24.22;30.30
17072;BME280;7731;50.720;6.912;2023-07-22T09:07:56;99874.44;;;23.74;30.86
17072;BME280;7731;50.720;6.912;2023-07-22T09:10:28;99872.88;;;24.75;30.07
17072;BME280;7731;50.720;6.912;2023-07-22T09:13:14;99870.78;;;26.00;27.20
17072;BME280;7731;50.720;6.912;2023-07-22T09:15:45;99872.28;;;25.11;30.00
17072;BME280;7731;50.720;6.912;2023-07-22T09:18:20;99869.81;;;24.32;31.04
17072;BME280;7731;50.720;6.912;2023-07-22T09:20:59;99882.34;;;25.31;30.31
17072;BME280;7731;50.720;6.912;2023-07-22T09:23:38;99871.94;;;25.14;30.06
17072;BME280;7731;50.720;6.912;2023-07-22T09:26:09;99871.56;;;25.71;28.96
17072;BME280;7731;50.720;6.912;2023-07-22T09:28:54;99869.13;;;27.72;27.56
17072;BME280;7731;50.720;6.912;2023-07-22T09:31:26;99858.19;;;29.38;24.26
17072;BME280;7731;50.720;6.912;2023-07-22T09:34:10;99864.50;;;29.11;24.19
17072;BME280;7731;50.720;6.912;2023-07-22T09:36:51;99870.47;;;27.89;25.14
17072;BME280;7731;50.720;6.912;2023-07-22T09:39:22;99863.31;;;28.31;24.56
17072;BME280;7731;50.720;6.912;2023-07-22T09:42:06;99857.56;;;28.08;25.03
17072;BME280;7731;50.720;6.912;2023-07-22T09:44:44;99855.72;;;28.77;23.54
17072;BME280;7731;50.720;6.912;2023-07-22T09:47:14;99860.03;;;28.09;24.76
17072;BME280;7731;50.720;6.912;2023-07-22T09:49:50;99850.47;;;29.24;23.94
17072;BME280;7731;50.720;6.912;2023-07-22T09:52:23;99851.44;;;30.53;22.08
17072;BME280;7731;50.720;6.912;2023-07-22T09:54:59;99855.03;;;30.27;21.76
17072;BME280;7731;50.720;6.912;2023-07-22T09:57:30;99862.25;;;28.88;22.88
17072;BME280;7731;50.720;6.912;2023-07-22T10:00:01;99855.84;;;27.93;23.79
17072;BME280;7731;50.720;6.912;2023-07-22T10:02:33;99856.78;;;26.51;25.36
17072;BME280;7731;50.720;6.912;2023-07-22T10:05:08;99848.81;;;28.01;23.91
17072;BME280;7731;50.720;6.912;2023-07-22T10:08:06;99848.41;;;29.19;23.05
17072;BME280;7731;50.720;6.912;2023-07-22T10:10:38;99850.38;;;28.50;23.60
17072;BME280;7731;50.720;6.912;2023-07-22T10:13:10;99836.66;;;30.32;21.75
17072;BME280;7731;50.720;6.912;2023-07-22T10:15:40;99857.84;;;28.26;22.36
17072;BME280;7731;50.720;6.912;2023-07-22T10:18:11;99841.09;;;28.67;22.96
17072;BME280;7731;50.720;6.912;2023-07-22T10:20:47;99849.63;;;28.70;23.22
17072;BME280;7731;50.720;6.912;2023-07-22T10:23:19;99843.94;;;28.86;22.89
17072;BME280;7731;50.720;6.912;2023-07-22T10:25:55;99839.00;;;29.50;22.13
17072;BME280;7731;50.720;6.912;2023-07-22T10:28:29;99839.84;;;29.30;23.01
17072;BME280;7731;50.720;6.912;2023-07-22T10:31:00;99842.72;;;29.02;22.61
17072;BME280;7731;50.720;6.912;2023-07-22T10:33:30;99841.44;;;29.58;21.46
17072;BME280;7731;50.720;6.912;2023-07-22T10:36:15;99831.13;;;30.02;21.04
17072;BME280;7731;50.720;6.912;2023-07-22T10:38:56;99837.34;;;27.93;24.36
17072;BME280;7731;50.720;6.912;2023-07-22T10:41:32;99838.75;;;27.83;23.70
17072;BME280;7731;50.720;6.912;2023-07-22T10:44:06;99839.81;;;27.53;23.78
17072;BME280;7731;50.720;6.912;2023-07-22T10:46:39;99830.50;;;28.74;22.72
17072;BME280;7731;50.720;6.912;2023-07-22T10:49:19;99824.53;;;28.45;21.88
17072;BME280;7731;50.720;6.912;2023-07-22T10:51:52;99823.63;;;30.31;20.23
17072;BME280;7731;50.720;6.912;2023-07-22T10:54:33;99825.22;;;30.38;20.22
17072;BME280;7731;50.720;6.912;2023-07-22T10:57:22;99820.06;;;29.53;21.21
17072;BME280;7731;50.720;6.912;2023-07-22T10:59:55;99823.00;;;28.03;22.66
17072;BME280;7731;50.720;6.912;2023-07-22T11:02:28;99827.63;;;27.52;23.04
17072;BME280;7731;50.720;6.912;2023-07-22T11:05:16;99820.81;;;27.08;23.38
17072;BME280;7731;50.720;6.912;2023-07-22T11:08:03;99818.38;;;27.06;24.22
17072;BME280;7731;50.720;6.912;2023-07-22T11:10:53;99812.81;;;28.61;23.20
17072;BME280;7731;50.720;6.912;2023-07-22T11:13:28;99817.19;;;27.79;23.94
17072;BME280;7731;50.720;6.912;2023-07-22T11:15:59;99819.47;;;26.90;23.89
17072;BME280;7731;50.720;6.912;2023-07-22T11:18:38;99811.25;;;28.12;22.91
17072;BME280;7731;50.720;6.912;2023-07-22T11:21:13;99813.88;;;27.64;23.48
17072;BME280;7731;50.720;6.912;2023-07-22T11:23:45;99806.13;;;27.55;24.80
17072;BME280;7731;50.720;6.912;2023-07-22T11:26:16;99814.97;;;27.76;24.11
17072;BME280;7731;50.720;6.912;2023-07-22T11:28:46;99803.59;;;26.62;24.81
17072;BME280;7731;50.720;6.912;2023-07-22T11:31:19;99817.66;;;26.91;25.12
17072;BME280;7731;50.720;6.912;2023-07-22T11:33:54;99800.66;;;26.72;24.96
17072;BME280;7731;50.720;6.912;2023-07-22T11:36:25;99804.84;;;27.86;23.75
17072;BME280;7731;50.720;6.912;2023-07-22T11:39:17;99803.19;;;28.47;23.01
17072;BME280;7731;50.720;6.912;2023-07-22T11:41:51;99799.88;;;28.18;22.43
17072;BME280;7731;50.720;6.912;2023-07-22T11:44:26;99800.13;;;27.75;23.20
17072;BME280;7731;50.720;6.912;2023-07-22T11:46:59;99791.91;;;27.50;23.52
17072;BME280;7731;50.720;6.912;2023-07-22T11:49:35;99785.69;;;28.19;23.32
17072;BME280;7731;50.720;6.912;2023-07-22T11:52:08;99787.72;;;28.30;23.35
17072;BME280;7731;50.720;6.912;2023-07-22T11:54:43;99788.31;;;27.01;23.62
17072;BME280;7731;50.720;6.912;2023-07-22T11:57:20;99781.38;;;27.56;24.67
17072;BME280;7731;50.720;6.912;2023-07-22T12:00:03;99783.81;;;27.58;23.83
17072;BME280;7731;50.720;6.912;2023-07-22T12:02:38;99779.53;;;27.99;23.74
17072;BME280;7731;50.720;6.912;2023-07-22T12:05:12;99785.63;;;28.06;23.08
17072;BME280;7731;50.720;6.912;2023-07-22T12:07:48;99778.56;;;27.65;23.79
17072;BME280;7731;50.720;6.912;2023-07-22T12:10:27;99777.25;;;27.47;24.37
17072;BME280;7731;50.720;6.912;2023-07-22T12:13:01;99777.34;;;27.60;24.25
17072;BME280;7731;50.720;6.912;2023-07-22T12:15:31;99776.34;;;27.61;23.60
17072;BME280;7731;50.720;6.912;2023-07-22T12:18:02;99774.19;;;26.59;24.36
17072;BME280;7731;50.720;6.912;2023-07-22T12:20:34;99764.13;;;26.26;25.08
17072;BME280;7731;50.720;6.912;2023-07-22T12:23:04;99765.88;;;27.40;24.93
17072;BME280;7731;50.720;6.912;2023-07-22T12:25:37;99759.78;;;27.94;24.03
17072;BME280;7731;50.720;6.912;2023-07-22T12:28:11;99761.78;;;28.67;23.63
17072;BME280;7731;50.720;6.912;2023-07-22T12:30:42;99755.66;;;28.87;23.34
17072;BME280;7731;50.720;6.912;2023-07-22T12:33:18;99764.22;;;28.76;23.03
17072;BME280;7731;50.720;6.912;2023-07-22T12:35:49;99762.06;;;27.97;24.89
17072;BME280;7731;50.720;6.912;2023-07-22T12:38:22;99759.84;;;26.89;24.61
17072;BME280;7731;50.720;6.912;2023-07-22T12:40:55;99756.28;;;26.32;25.20
17072;BME280;7731;50.720;6.912;2023-07-22T12:43:27;99757.81;;;26.63;24.48
17072;BME280;7731;50.720;6.912;2023-07-22T12:46:00;99753.47;;;26.55;24.36
17072;BME280;7731;50.720;6.912;2023-07-22T12:48:38;99758.59;;;26.85;24.58
17072;BME280;7731;50.720;6.912;2023-07-22T12:51:11;99758.97;;;26.61;24.90
17072;BME280;7731;50.720;6.912;2023-07-22T12:53:41;99758.81;;;26.19;25.50
17072;BME280;7731;50.720;6.912;2023-07-22T12:56:17;99759.75;;;25.96;25.58
17072;BME280;7731;50.720;6.912;2023-07-22T12:58:49;99753.97;;;26.23;25.55
17072;BME280;7731;50.720;6.912;2023-07-22T13:01:20;99742.78;;;26.35;25.03
17072;BME280;7731;50.720;6.912;2023-07-22T13:03:50;99746.91;;;26.95;25.49
17072;BME280;7731;50.720;6.912;2023-07-22T13:06:20;99750.91;;;26.90;25.35
17072;BME280;7731;50.720;6.912;2023-07-22T13:08:51;99750.63;;;27.07;24.61
17072;BME280;7731;50.720;6.912;2023-07-22T13:11:23;99746.31;;;26.28;25.28
17072;BME280;7731;50.720;6.912;2023-07-22T13:14:03;99737.59;;;26.49;25.91
17072;BME280;7731;50.720;6.912;2023-07-22T13:16:33;99746.31;;;26.28;25.30
17072;BME280;7731;50.720;6.912;2023-07-22T13:19:04;99741.50;;;26.31;25.40
17072;BME280;7731;50.720;6.912;2023-07-22T13:21:37;99734.41;;;26.32;25.15
17072;BME280;7731;50.720;6.912;2023-07-22T13:24:21;99732.16;;;26.29;25.75
17072;BME280;7731;50.720;6.912;2023-07-22T13:26:54;99729.28;;;26.67;25.02
17072;BME280;7731;50.720;6.912;2023-07-22T13:29:25;99727.75;;;26.58;25.20
17072;BME280;7731;50.720;6.912;2023-07-22T13:31:55;99710.94;;;26.59;25.88
17072;BME280;7731;50.720;6.912;2023-07-22T13:34:25;99714.34;;;26.31;25.93
17072;BME280;7731;50.720;6.912;2023-07-22T13:36:56;99717.91;;;26.66;25.92
17072;BME280;7731;50.720;6.912;2023-07-22T13:39:30;99718.56;;;26.04;25.75